sensor_id;sensor_type;location;lat;lon;timestamp;P1;durP1;ratioP1;P2;durP2;ratioP2
4434;SDS011;46552;52.150;8.428;2023-06-26T00:01:57;14.50;;;10.20;;
4434;SDS011;46552;52.150;8.428;2023-06-26T00:04:24;10.70;;;8.90;;
4434;SDS011;46552;52.150;8.428;2023-06-26T00:06:52;16.77;;;10.50;;
4434;SDS011;46552;52.150;8.428;2023-06-26T00:09:20;15.00;;;11.23;;
4434;SDS011;46552;52.150;8.428;2023-06-26T00:11:48;11.57;;;10.20;;
4434;SDS011;46552;52.150;8.428;2023-06-26T00:14:15;17.77;;;10.87;;
4434;SDS011;46552;52.150;8.428;2023-06-26T00:16:44;14.27;;;9.17;;
4434;SDS011;46552;52.150;8.428;2023-06-26T00:19:12;15.27;;;11.40;;
4434;SDS011;46552;52.150;8.428;2023-06-26T00:21:40;17.80;;;11.23;;
4434;SDS011;46552;52.150;8.428;2023-06-26T00:24:12;12.57;;;9.40;;
4434;SDS011;46552;52.150;8.428;2023-06-26T00:26:40;12.27;;;9.80;;
4434;SDS011;46552;52.150;8.428;2023-06-26T00:29:07;15.93;;;10.97;;
4434;SDS011;46552;52.150;8.428;2023-06-26T00:31:36;13.67;;;10.47;;
4434;SDS011;46552;52.150;8.428;2023-06-26T00:34:05;13.13;;;10.30;;
4434;SDS011;46552;52.150;8.428;2023-06-26T00:36:34;17.20;;;10.40;;
4434;SDS011;46552;52.150;8.428;2023-06-26T00:39:01;14.63;;;10.93;;
4434;SDS011;46552;52.150;8.428;2023-06-26T00:41:28;14.93;;;9.27;;
4434;SDS011;46552;52.150;8.428;2023-06-26T00:43:55;15.03;;;11.47;;
4434;SDS011;46552;52.150;8.428;2023-06-26T00:46:23;14.47;;;11.30;;
4434;SDS011;46552;52.150;8.428;2023-06-26T00:48:50;12.30;;;10.50;;
4434;SDS011;46552;52.150;8.428;2023-06-26T00:51:19;17.83;;;11.07;;
4434;SDS011;46552;52.150;8.428;2023-06-26T00:53:48;14.70;;;10.80;;
4434;SDS011;46552;52.150;8.428;2023-06-26T00:56:16;22.73;;;12.87;;
4434;SDS011;46552;52.150;8.428;2023-06-26T00:58:44;15.70;;;12.90;;
4434;SDS011;46552;52.150;8.428;2023-06-26T01:01:12;15.47;;;11.17;;
4434;SDS011;46552;52.150;8.428;2023-06-26T01:03:42;17.67;;;12.00;;
4434;SDS011;46552;52.150;8.428;2023-06-26T01:06:11;14.00;;;10.43;;
4434;SDS011;46552;52.150;8.428;2023-06-26T01:08:41;15.50;;;10.70;;
4434;SDS011;46552;52.150;8.428;2023-06-26T01:11:09;16.37;;;10.63;;
4434;SDS011;46552;52.150;8.428;2023-06-26T01:13:37;13.50;;;10.33;;
4434;SDS011;46552;52.150;8.428;2023-06-26T01:16:06;19.43;;;11.60;;
4434;SDS011;46552;52.150;8.428;2023-06-26T01:18:33;12.90;;;10.03;;
4434;SDS011;46552;52.150;8.428;2023-06-26T01:21:03;18.97;;;11.83;;
4434;SDS011;46552;52.150;8.428;2023-06-26T01:23:39;16.20;;;10.97;;
4434;SDS011;46552;52.150;8.428;2023-06-26T01:26:17;16.43;;;10.30;;
4434;SDS011;46552;52.150;8.428;2023-06-26T01:28:47;17.43;;;11.27;;
4434;SDS011;46552;52.150;8.428;2023-06-26T01:31:17;16.43;;;11.17;;
4434;SDS011;46552;52.150;8.428;2023-06-26T01:33:45;17.17;;;11.67;;
4434;SDS011;46552;52.150;8.428;2023-06-26T01:36:13;19.40;;;12.33;;
4434;SDS011;46552;52.150;8.428;2023-06-26T01:38:40;15.70;;;11.77;;
4434;SDS011;46552;52.150;8.428;2023-06-26T01:41:09;14.30;;;10.77;;
4434;SDS011;46552;52.150;8.428;2023-06-26T01:43:41;18.73;;;11.60;;
4434;SDS011;46552;52.150;8.428;2023-06-26T01:46:18;17.83;;;11.30;;
4434;SDS011;46552;52.150;8.428;2023-06-26T01:48:52;19.13;;;11.33;;
4434;SDS011;46552;52.150;8.428;2023-06-26T01:51:27;21.43;;;11.50;;
4434;SDS011;46552;52.150;8.428;2023-06-26T01:53:58;19.33;;;11.80;;
4434;SDS011;46552;52.150;8.428;2023-06-26T01:56:28;15.60;;;11.73;;
4434;SDS011;46552;52.150;8.428;2023-06-26T01:58:58;20.60;;;11.07;;
4434;SDS011;46552;52.150;8.428;2023-06-26T02:01:26;17.87;;;11.57;;
4434;SDS011;46552;52.150;8.428;2023-06-26T02:03:54;17.10;;;13.03;;
4434;SDS011;46552;52.150;8.428;2023-06-26T02:06:21;16.43;;;11.10;;
4434;SDS011;46552;52.150;8.428;2023-06-26T02:08:49;18.93;;;12.47;;
4434;SDS011;46552;52.150;8.428;2023-06-26T02:11:16;24.73;;;10.93;;
4434;SDS011;46552;52.150;8.428;2023-06-26T02:13:43;18.77;;;11.50;;
4434;SDS011;46552;52.150;8.428;2023-06-26T02:16:12;14.70;;;10.93;;
4434;SDS011;46552;52.150;8.428;2023-06-26T02:18:39;20.60;;;11.40;;
4434;SDS011;46552;52.150;8.428;2023-06-26T02:21:07;23.23;;;10.97;;
4434;SDS011;46552;52.150;8.428;2023-06-26T02:23:35;18.80;;;10.80;;
4434;SDS011;46552;52.150;8.428;2023-06-26T02:26:03;18.93;;;11.70;;
4434;SDS011;46552;52.150;8.428;2023-06-26T02:28:30;16.53;;;11.17;;
4434;SDS011;46552;52.150;8.428;2023-06-26T02:30:59;15.93;;;10.40;;
4434;SDS011;46552;52.150;8.428;2023-06-26T02:33:27;19.77;;;9.67;;
4434;SDS011;46552;52.150;8.428;2023-06-26T02:35:54;24.40;;;11.47;;
4434;SDS011;46552;52.150;8.428;2023-06-26T02:38:21;22.53;;;10.97;;
4434;SDS011;46552;52.150;8.428;2023-06-26T02:40:48;19.50;;;11.20;;
4434;SDS011;46552;52.150;8.428;2023-06-26T02:43:16;17.93;;;10.97;;
4434;SDS011;46552;52.150;8.428;2023-06-26T02:45:43;21.40;;;11.43;;
4434;SDS011;46552;52.150;8.428;2023-06-26T02:48:10;18.90;;;11.50;;
4434;SDS011;46552;52.150;8.428;2023-06-26T02:50:39;18.20;;;12.83;;
4434;SDS011;46552;52.150;8.428;2023-06-26T02:53:06;22.73;;;11.10;;
4434;SDS011;46552;52.150;8.428;2023-06-26T02:55:34;22.60;;;11.93;;
4434;SDS011;46552;52.150;8.428;2023-06-26T02:58:01;21.40;;;13.23;;
4434;SDS011;46552;52.150;8.428;2023-06-26T03:00:28;18.33;;;12.23;;
4434;SDS011;46552;52.150;8.428;2023-06-26T03:02:56;17.63;;;10.47;;
4434;SDS011;46552;52.150;8.428;2023-06-26T03:05:23;23.13;;;13.73;;
4434;SDS011;46552;52.150;8.428;2023-06-26T03:07:52;19.37;;;11.60;;
4434;SDS011;46552;52.150;8.428;2023-06-26T03:10:19;17.00;;;11.13;;
4434;SDS011;46552;52.150;8.428;2023-06-26T03:12:46;18.17;;;11.83;;
4434;SDS011;46552;52.150;8.428;2023-06-26T03:15:13;16.10;;;11.90;;
4434;SDS011;46552;52.150;8.428;2023-06-26T03:17:40;16.40;;;10.43;;
4434;SDS011;46552;52.150;8.428;2023-06-26T03:20:07;17.07;;;12.23;;
4434;SDS011;46552;52.150;8.428;2023-06-26T03:22:35;18.23;;;11.10;;
4434;SDS011;46552;52.150;8.428;2023-06-26T03:25:04;17.00;;;10.90;;
4434;SDS011;46552;52.150;8.428;2023-06-26T03:27:31;23.77;;;11.53;;
4434;SDS011;46552;52.150;8.428;2023-06-26T03:29:58;21.63;;;11.77;;
4434;SDS011;46552;52.150;8.428;2023-06-26T03:32:26;23.10;;;12.17;;
4434;SDS011;46552;52.150;8.428;2023-06-26T03:34:53;20.90;;;11.33;;
4434;SDS011;46552;52.150;8.428;2023-06-26T03:37:21;25.30;;;11.83;;
4434;SDS011;46552;52.150;8.428;2023-06-26T03:39:48;34.13;;;12.43;;
4434;SDS011;46552;52.150;8.428;2023-06-26T03:42:17;29.60;;;12.40;;
4434;SDS011;46552;52.150;8.428;2023-06-26T03:44:44;41.00;;;10.73;;
4434;SDS011;46552;52.150;8.428;2023-06-26T03:47:11;26.40;;;10.37;;
4434;SDS011;46552;52.150;8.428;2023-06-26T03:49:38;29.93;;;12.10;;
4434;SDS011;46552;52.150;8.428;2023-06-26T03:52:06;20.37;;;10.00;;
4434;SDS011;46552;52.150;8.428;2023-06-26T03:54:33;28.50;;;10.60;;
4434;SDS011;46552;52.150;8.428;2023-06-26T03:57:01;26.77;;;11.07;;
4434;SDS011;46552;52.150;8.428;2023-06-26T03:59:32;21.23;;;11.27;;
4434;SDS011;46552;52.150;8.428;2023-06-26T04:02:00;30.43;;;12.63;;
4434;SDS011;46552;52.150;8.428;2023-06-26T04:04:29;15.93;;;10.30;;
4434;SDS011;46552;52.150;8.428;2023-06-26T04:06:56;21.80;;;11.80;;
4434;SDS011;46552;52.150;8.428;2023-06-26T04:09:24;19.90;;;13.40;;
4434;SDS011;46552;52.150;8.428;2023-06-26T04:11:51;13.80;;;11.10;;
4434;SDS011;46552;52.150;8.428;2023-06-26T04:14:18;16.90;;;11.57;;
4434;SDS011;46552;52.150;8.428;2023-06-26T04:16:47;20.37;;;12.57;;
4434;SDS011;46552;52.150;8.428;2023-06-26T04:19:14;18.63;;;12.60;;
4434;SDS011;46552;52.150;8.428;2023-06-26T04:21:41;23.67;;;11.90;;
4434;SDS011;46552;52.150;8.428;2023-06-26T04:24:09;23.00;;;13.20;;
4434;SDS011;46552;52.150;8.428;2023-06-26T04:26:36;20.10;;;11.70;;
4434;SDS011;46552;52.150;8.428;2023-06-26T04:29:06;21.80;;;12.50;;
4434;SDS011;46552;52.150;8.428;2023-06-26T04:31:33;22.23;;;13.43;;
4434;SDS011;46552;52.150;8.428;2023-06-26T04:34:02;25.47;;;12.87;;
4434;SDS011;46552;52.150;8.428;2023-06-26T04:36:30;23.07;;;11.93;;
4434;SDS011;46552;52.150;8.428;2023-06-26T04:38:58;21.53;;;11.90;;
4434;SDS011;46552;52.150;8.428;2023-06-26T04:41:25;17.27;;;10.43;;
4434;SDS011;46552;52.150;8.428;2023-06-26T04:43:53;18.67;;;11.50;;
4434;SDS011;46552;52.150;8.428;2023-06-26T04:46:21;15.80;;;11.00;;
4434;SDS011;46552;52.150;8.428;2023-06-26T04:48:48;19.43;;;11.10;;
4434;SDS011;46552;52.150;8.428;2023-06-26T04:51:17;25.17;;;13.20;;
4434;SDS011;46552;52.150;8.428;2023-06-26T04:53:46;21.57;;;11.10;;
4434;SDS011;46552;52.150;8.428;2023-06-26T04:56:13;26.63;;;10.90;;
4434;SDS011;46552;52.150;8.428;2023-06-26T04:58:40;28.70;;;12.00;;
4434;SDS011;46552;52.150;8.428;2023-06-26T05:01:07;26.90;;;10.33;;
4434;SDS011;46552;52.150;8.428;2023-06-26T05:03:35;19.70;;;10.80;;
4434;SDS011;46552;52.150;8.428;2023-06-26T05:06:02;19.80;;;10.67;;
4434;SDS011;46552;52.150;8.428;2023-06-26T05:08:32;19.20;;;9.73;;
4434;SDS011;46552;52.150;8.428;2023-06-26T05:10:59;18.63;;;12.00;;
4434;SDS011;46552;52.150;8.428;2023-06-26T05:13:26;28.53;;;9.67;;
4434;SDS011;46552;52.150;8.428;2023-06-26T05:15:54;28.10;;;11.70;;
4434;SDS011;46552;52.150;8.428;2023-06-26T05:18:22;21.00;;;12.13;;
4434;SDS011;46552;52.150;8.428;2023-06-26T05:20:49;20.87;;;10.03;;
4434;SDS011;46552;52.150;8.428;2023-06-26T05:23:18;16.50;;;10.23;;
4434;SDS011;46552;52.150;8.428;2023-06-26T05:25:50;17.63;;;10.00;;
4434;SDS011;46552;52.150;8.428;2023-06-26T05:28:18;14.17;;;9.83;;
4434;SDS011;46552;52.150;8.428;2023-06-26T05:30:46;15.43;;;9.70;;
4434;SDS011;46552;52.150;8.428;2023-06-26T05:33:13;11.70;;;8.10;;
4434;SDS011;46552;52.150;8.428;2023-06-26T05:35:43;11.03;;;8.47;;
4434;SDS011;46552;52.150;8.428;2023-06-26T05:38:12;15.83;;;8.77;;
4434;SDS011;46552;52.150;8.428;2023-06-26T05:40:39;11.53;;;7.37;;
4434;SDS011;46552;52.150;8.428;2023-06-26T05:43:10;17.00;;;7.33;;
4434;SDS011;46552;52.150;8.428;2023-06-26T05:45:38;11.33;;;8.30;;
4434;SDS011;46552;52.150;8.428;2023-06-26T05:48:06;13.87;;;8.47;;
4434;SDS011;46552;52.150;8.428;2023-06-26T05:50:33;19.20;;;9.10;;
4434;SDS011;46552;52.150;8.428;2023-06-26T05:53:01;13.10;;;9.80;;
4434;SDS011;46552;52.150;8.428;2023-06-26T05:55:29;17.17;;;8.83;;
4434;SDS011;46552;52.150;8.428;2023-06-26T05:57:56;13.57;;;8.20;;
4434;SDS011;46552;52.150;8.428;2023-06-26T06:00:28;21.73;;;8.77;;
4434;SDS011;46552;52.150;8.428;2023-06-26T06:02:56;14.40;;;9.37;;
4434;SDS011;46552;52.150;8.428;2023-06-26T06:05:23;15.23;;;9.73;;
4434;SDS011;46552;52.150;8.428;2023-06-26T06:07:50;16.40;;;10.60;;
4434;SDS011;46552;52.150;8.428;2023-06-26T06:10:18;16.67;;;10.40;;
4434;SDS011;46552;52.150;8.428;2023-06-26T06:12:45;16.90;;;9.60;;
4434;SDS011;46552;52.150;8.428;2023-06-26T06:15:12;23.40;;;10.47;;
4434;SDS011;46552;52.150;8.428;2023-06-26T06:17:43;20.70;;;9.60;;
4434;SDS011;46552;52.150;8.428;2023-06-26T06:20:10;20.30;;;12.40;;
4434;SDS011;46552;52.150;8.428;2023-06-26T06:22:37;20.90;;;11.33;;
4434;SDS011;46552;52.150;8.428;2023-06-26T06:25:05;17.67;;;10.40;;
4434;SDS011;46552;52.150;8.428;2023-06-26T06:27:32;19.83;;;11.50;;
4434;SDS011;46552;52.150;8.428;2023-06-26T06:30:00;14.50;;;11.00;;
4434;SDS011;46552;52.150;8.428;2023-06-26T06:32:28;30.50;;;12.20;;
4434;SDS011;46552;52.150;8.428;2023-06-26T06:34:57;19.17;;;11.67;;
4434;SDS011;46552;52.150;8.428;2023-06-26T06:37:24;15.87;;;12.00;;
4434;SDS011;46552;52.150;8.428;2023-06-26T06:39:51;72.13;;;14.83;;
4434;SDS011;46552;52.150;8.428;2023-06-26T06:42:19;19.07;;;12.50;;
4434;SDS011;46552;52.150;8.428;2023-06-26T06:44:46;29.13;;;13.20;;
4434;SDS011;46552;52.150;8.428;2023-06-26T06:47:13;22.63;;;12.47;;
4434;SDS011;46552;52.150;8.428;2023-06-26T06:49:40;18.77;;;13.07;;
4434;SDS011;46552;52.150;8.428;2023-06-26T06:52:09;20.50;;;13.13;;
4434;SDS011;46552;52.150;8.428;2023-06-26T06:54:50;24.87;;;13.07;;
4434;SDS011;46552;52.150;8.428;2023-06-26T06:57:18;22.20;;;14.33;;
4434;SDS011;46552;52.150;8.428;2023-06-26T06:59:46;16.50;;;11.00;;
4434;SDS011;46552;52.150;8.428;2023-06-26T07:02:13;16.30;;;12.10;;
4434;SDS011;46552;52.150;8.428;2023-06-26T07:04:41;17.73;;;12.00;;
4434;SDS011;46552;52.150;8.428;2023-06-26T07:07:11;17.93;;;12.23;;
4434;SDS011;46552;52.150;8.428;2023-06-26T07:09:39;19.47;;;13.73;;
4434;SDS011;46552;52.150;8.428;2023-06-26T07:12:07;20.57;;;12.57;;
4434;SDS011;46552;52.150;8.428;2023-06-26T07:14:35;17.73;;;12.90;;
4434;SDS011;46552;52.150;8.428;2023-06-26T07:17:02;23.17;;;13.77;;
4434;SDS011;46552;52.150;8.428;2023-06-26T07:19:30;17.43;;;12.33;;
4434;SDS011;46552;52.150;8.428;2023-06-26T07:21:58;28.23;;;12.07;;
4434;SDS011;46552;52.150;8.428;2023-06-26T07:24:26;23.40;;;12.00;;
4434;SDS011;46552;52.150;8.428;2023-06-26T07:26:54;23.93;;;11.27;;
4434;SDS011;46552;52.150;8.428;2023-06-26T07:29:21;22.87;;;11.70;;
4434;SDS011;46552;52.150;8.428;2023-06-26T07:31:49;17.80;;;12.10;;
4434;SDS011;46552;52.150;8.428;2023-06-26T07:34:16;20.63;;;12.43;;
4434;SDS011;46552;52.150;8.428;2023-06-26T07:36:43;16.37;;;10.27;;
4434;SDS011;46552;52.150;8.428;2023-06-26T07:39:11;28.47;;;12.80;;
4434;SDS011;46552;52.150;8.428;2023-06-26T07:41:39;20.33;;;12.00;;
4434;SDS011;46552;52.150;8.428;2023-06-26T07:44:09;15.30;;;9.83;;
4434;SDS011;46552;52.150;8.428;2023-06-26T07:46:36;14.70;;;11.27;;
4434;SDS011;46552;52.150;8.428;2023-06-26T07:49:04;17.27;;;12.37;;
4434;SDS011;46552;52.150;8.428;2023-06-26T07:51:30;16.80;;;11.87;;
4434;SDS011;46552;52.150;8.428;2023-06-26T07:53:58;21.47;;;11.90;;
4434;SDS011;46552;52.150;8.428;2023-06-26T07:56:25;21.10;;;11.80;;
4434;SDS011;46552;52.150;8.428;2023-06-26T07:58:54;24.73;;;12.80;;
4434;SDS011;46552;52.150;8.428;2023-06-26T08:01:24;15.33;;;11.27;;
4434;SDS011;46552;52.150;8.428;2023-06-26T08:03:51;21.50;;;11.57;;
4434;SDS011;46552;52.150;8.428;2023-06-26T08:06:19;17.83;;;12.40;;
4434;SDS011;46552;52.150;8.428;2023-06-26T08:08:46;18.63;;;11.03;;
4434;SDS011;46552;52.150;8.428;2023-06-26T08:11:14;16.27;;;11.13;;
4434;SDS011;46552;52.150;8.428;2023-06-26T08:13:42;14.67;;;10.30;;
4434;SDS011;46552;52.150;8.428;2023-06-26T08:16:11;21.20;;;10.37;;
4434;SDS011;46552;52.150;8.428;2023-06-26T08:18:38;16.13;;;9.67;;
4434;SDS011;46552;52.150;8.428;2023-06-26T08:21:05;17.53;;;9.40;;
4434;SDS011;46552;52.150;8.428;2023-06-26T08:23:34;21.53;;;9.87;;
4434;SDS011;46552;52.150;8.428;2023-06-26T08:26:01;17.07;;;9.77;;
4434;SDS011;46552;52.150;8.428;2023-06-26T08:28:29;12.37;;;9.03;;
4434;SDS011;46552;52.150;8.428;2023-06-26T08:30:56;16.60;;;9.50;;
4434;SDS011;46552;52.150;8.428;2023-06-26T08:33:24;17.07;;;9.50;;
4434;SDS011;46552;52.150;8.428;2023-06-26T08:35:52;15.53;;;9.77;;
4434;SDS011;46552;52.150;8.428;2023-06-26T08:38:19;17.03;;;9.73;;
4434;SDS011;46552;52.150;8.428;2023-06-26T08:40:46;15.77;;;8.97;;
4434;SDS011;46552;52.150;8.428;2023-06-26T08:43:14;18.70;;;8.47;;
4434;SDS011;46552;52.150;8.428;2023-06-26T08:45:41;28.30;;;9.40;;
4434;SDS011;46552;52.150;8.428;2023-06-26T08:48:08;22.00;;;9.70;;
4434;SDS011;46552;52.150;8.428;2023-06-26T08:50:38;16.40;;;9.10;;
4434;SDS011;46552;52.150;8.428;2023-06-26T08:53:07;11.23;;;7.40;;
4434;SDS011;46552;52.150;8.428;2023-06-26T08:55:41;18.80;;;9.63;;
4434;SDS011;46552;52.150;8.428;2023-06-26T08:58:10;21.20;;;8.23;;
4434;SDS011;46552;52.150;8.428;2023-06-26T09:00:38;14.83;;;7.60;;
4434;SDS011;46552;52.150;8.428;2023-06-26T09:03:07;16.27;;;9.47;;
4434;SDS011;46552;52.150;8.428;2023-06-26T09:05:36;14.50;;;8.20;;
4434;SDS011;46552;52.150;8.428;2023-06-26T09:08:04;13.93;;;8.57;;
4434;SDS011;46552;52.150;8.428;2023-06-26T09:10:33;14.33;;;7.87;;
4434;SDS011;46552;52.150;8.428;2023-06-26T09:13:00;15.83;;;7.43;;
4434;SDS011;46552;52.150;8.428;2023-06-26T09:15:36;14.20;;;7.70;;
4434;SDS011;46552;52.150;8.428;2023-06-26T09:18:04;14.67;;;8.00;;
4434;SDS011;46552;52.150;8.428;2023-06-26T09:20:32;20.73;;;7.00;;
4434;SDS011;46552;52.150;8.428;2023-06-26T09:23:02;11.40;;;5.77;;
4434;SDS011;46552;52.150;8.428;2023-06-26T09:25:29;13.23;;;7.07;;
4434;SDS011;46552;52.150;8.428;2023-06-26T09:27:57;11.60;;;7.80;;
4434;SDS011;46552;52.150;8.428;2023-06-26T09:30:24;27.80;;;9.10;;
4434;SDS011;46552;52.150;8.428;2023-06-26T09:32:51;15.87;;;7.10;;
4434;SDS011;46552;52.150;8.428;2023-06-26T09:35:19;13.43;;;6.97;;
4434;SDS011;46552;52.150;8.428;2023-06-26T09:37:46;13.10;;;6.80;;
4434;SDS011;46552;52.150;8.428;2023-06-26T09:40:15;14.73;;;6.30;;
4434;SDS011;46552;52.150;8.428;2023-06-26T09:42:43;15.90;;;7.00;;
4434;SDS011;46552;52.150;8.428;2023-06-26T09:45:17;16.40;;;6.30;;
4434;SDS011;46552;52.150;8.428;2023-06-26T09:47:45;11.17;;;6.23;;
4434;SDS011;46552;52.150;8.428;2023-06-26T09:50:20;14.93;;;7.17;;
4434;SDS011;46552;52.150;8.428;2023-06-26T09:52:50;14.67;;;7.80;;
4434;SDS011;46552;52.150;8.428;2023-06-26T09:55:19;15.93;;;6.70;;
4434;SDS011;46552;52.150;8.428;2023-06-26T09:57:48;10.23;;;5.73;;
4434;SDS011;46552;52.150;8.428;2023-06-26T10:00:16;26.70;;;7.00;;
4434;SDS011;46552;52.150;8.428;2023-06-26T10:02:45;21.17;;;6.83;;
4434;SDS011;46552;52.150;8.428;2023-06-26T10:05:12;13.07;;;6.73;;
4434;SDS011;46552;52.150;8.428;2023-06-26T10:07:40;11.57;;;6.80;;
4434;SDS011;46552;52.150;8.428;2023-06-26T10:10:08;11.17;;;6.30;;
4434;SDS011;46552;52.150;8.428;2023-06-26T10:12:38;10.63;;;5.63;;
4434;SDS011;46552;52.150;8.428;2023-06-26T10:15:06;15.07;;;6.90;;
4434;SDS011;46552;52.150;8.428;2023-06-26T10:17:37;9.90;;;6.67;;
4434;SDS011;46552;52.150;8.428;2023-06-26T10:20:07;11.83;;;6.10;;
4434;SDS011;46552;52.150;8.428;2023-06-26T10:22:36;14.07;;;5.60;;
4434;SDS011;46552;52.150;8.428;2023-06-26T10:25:12;13.43;;;5.97;;
4434;SDS011;46552;52.150;8.428;2023-06-26T10:27:46;14.30;;;5.30;;
4434;SDS011;46552;52.150;8.428;2023-06-26T10:30:18;14.67;;;5.93;;
4434;SDS011;46552;52.150;8.428;2023-06-26T10:32:49;12.57;;;6.03;;
4434;SDS011;46552;52.150;8.428;2023-06-26T10:35:17;12.03;;;5.90;;
4434;SDS011;46552;52.150;8.428;2023-06-26T10:37:46;13.27;;;5.90;;
4434;SDS011;46552;52.150;8.428;2023-06-26T10:40:17;12.63;;;6.30;;
4434;SDS011;46552;52.150;8.428;2023-06-26T10:42:49;10.93;;;5.90;;
4434;SDS011;46552;52.150;8.428;2023-06-26T10:45:17;14.73;;;5.90;;
4434;SDS011;46552;52.150;8.428;2023-06-26T10:47:46;10.47;;;4.70;;
4434;SDS011;46552;52.150;8.428;2023-06-26T10:50:17;9.57;;;4.87;;
4434;SDS011;46552;52.150;8.428;2023-06-26T10:52:45;12.40;;;4.37;;
4434;SDS011;46552;52.150;8.428;2023-06-26T10:55:32;8.03;;;4.07;;
4434;SDS011;46552;52.150;8.428;2023-06-26T10:58:01;7.37;;;4.17;;
4434;SDS011;46552;52.150;8.428;2023-06-26T11:00:29;8.20;;;3.73;;
4434;SDS011;46552;52.150;8.428;2023-06-26T11:02:57;14.73;;;4.20;;
4434;SDS011;46552;52.150;8.428;2023-06-26T11:05:26;9.90;;;3.50;;
4434;SDS011;46552;52.150;8.428;2023-06-26T11:10:51;5.60;;;2.80;;
4434;SDS011;46552;52.150;8.428;2023-06-26T11:13:20;13.97;;;5.73;;
4434;SDS011;46552;52.150;8.428;2023-06-26T11:15:48;6.00;;;3.60;;
4434;SDS011;46552;52.150;8.428;2023-06-26T11:18:16;4.40;;;3.00;;
4434;SDS011;46552;52.150;8.428;2023-06-26T11:20:43;5.87;;;2.90;;
4434;SDS011;46552;52.150;8.428;2023-06-26T11:23:11;7.30;;;2.63;;
4434;SDS011;46552;52.150;8.428;2023-06-26T11:25:39;4.33;;;2.90;;
4434;SDS011;46552;52.150;8.428;2023-06-26T11:28:09;9.90;;;2.77;;
4434;SDS011;46552;52.150;8.428;2023-06-26T11:30:38;5.80;;;2.93;;
4434;SDS011;46552;52.150;8.428;2023-06-26T11:33:06;6.10;;;2.83;;
4434;SDS011;46552;52.150;8.428;2023-06-26T11:35:35;5.50;;;2.17;;
4434;SDS011;46552;52.150;8.428;2023-06-26T11:38:03;4.93;;;2.40;;
4434;SDS011;46552;52.150;8.428;2023-06-26T11:40:31;4.63;;;2.40;;
4434;SDS011;46552;52.150;8.428;2023-06-26T11:43:00;9.00;;;2.93;;
4434;SDS011;46552;52.150;8.428;2023-06-26T11:45:28;5.30;;;2.80;;
4434;SDS011;46552;52.150;8.428;2023-06-26T11:47:58;7.10;;;2.90;;
4434;SDS011;46552;52.150;8.428;2023-06-26T11:50:26;4.53;;;2.27;;
4434;SDS011;46552;52.150;8.428;2023-06-26T11:52:54;4.83;;;2.40;;
4434;SDS011;46552;52.150;8.428;2023-06-26T11:55:22;7.03;;;2.77;;
4434;SDS011;46552;52.150;8.428;2023-06-26T11:57:49;5.43;;;2.87;;
4434;SDS011;46552;52.150;8.428;2023-06-26T12:00:17;5.90;;;2.30;;
4434;SDS011;46552;52.150;8.428;2023-06-26T12:02:45;4.60;;;2.33;;
4434;SDS011;46552;52.150;8.428;2023-06-26T12:05:15;5.60;;;2.57;;
4434;SDS011;46552;52.150;8.428;2023-06-26T12:07:43;11.70;;;3.10;;
4434;SDS011;46552;52.150;8.428;2023-06-26T12:10:12;13.83;;;2.90;;
4434;SDS011;46552;52.150;8.428;2023-06-26T12:12:41;8.70;;;2.70;;
4434;SDS011;46552;52.150;8.428;2023-06-26T12:15:12;7.67;;;2.50;;
4434;SDS011;46552;52.150;8.428;2023-06-26T12:17:40;5.37;;;2.67;;
4434;SDS011;46552;52.150;8.428;2023-06-26T12:20:19;7.00;;;3.43;;
4434;SDS011;46552;52.150;8.428;2023-06-26T12:22:47;5.50;;;2.37;;
4434;SDS011;46552;52.150;8.428;2023-06-26T12:25:20;4.77;;;3.13;;
4434;SDS011;46552;52.150;8.428;2023-06-26T12:27:49;5.50;;;2.77;;
4434;SDS011;46552;52.150;8.428;2023-06-26T12:30:16;5.60;;;2.70;;
4434;SDS011;46552;52.150;8.428;2023-06-26T12:32:46;6.07;;;2.80;;
4434;SDS011;46552;52.150;8.428;2023-06-26T12:35:13;4.33;;;2.10;;
4434;SDS011;46552;52.150;8.428;2023-06-26T12:37:43;6.10;;;2.50;;
4434;SDS011;46552;52.150;8.428;2023-06-26T12:40:19;4.97;;;2.77;;
4434;SDS011;46552;52.150;8.428;2023-06-26T12:42:48;4.30;;;2.80;;
4434;SDS011;46552;52.150;8.428;2023-06-26T12:45:16;4.33;;;2.80;;
4434;SDS011;46552;52.150;8.428;2023-06-26T12:47:45;11.33;;;2.97;;
4434;SDS011;46552;52.150;8.428;2023-06-26T12:50:13;10.03;;;2.73;;
4434;SDS011;46552;52.150;8.428;2023-06-26T12:52:44;6.77;;;2.87;;
4434;SDS011;46552;52.150;8.428;2023-06-26T12:55:11;8.77;;;3.10;;
4434;SDS011;46552;52.150;8.428;2023-06-26T12:57:38;5.10;;;2.77;;
4434;SDS011;46552;52.150;8.428;2023-06-26T13:00:06;4.13;;;2.27;;
4434;SDS011;46552;52.150;8.428;2023-06-26T13:02:35;9.10;;;3.33;;
4434;SDS011;46552;52.150;8.428;2023-06-26T13:05:04;6.47;;;3.37;;
4434;SDS011;46552;52.150;8.428;2023-06-26T13:07:31;4.60;;;2.50;;
4434;SDS011;46552;52.150;8.428;2023-06-26T13:10:01;10.20;;;3.07;;
4434;SDS011;46552;52.150;8.428;2023-06-26T13:12:28;4.83;;;2.40;;
4434;SDS011;46552;52.150;8.428;2023-06-26T13:14:56;9.70;;;2.40;;
4434;SDS011;46552;52.150;8.428;2023-06-26T13:17:23;6.70;;;3.00;;
4434;SDS011;46552;52.150;8.428;2023-06-26T13:19:50;6.00;;;3.07;;
4434;SDS011;46552;52.150;8.428;2023-06-26T13:22:17;6.43;;;2.67;;
4434;SDS011;46552;52.150;8.428;2023-06-26T13:24:44;9.93;;;2.60;;
4434;SDS011;46552;52.150;8.428;2023-06-26T13:27:13;5.50;;;2.70;;
4434;SDS011;46552;52.150;8.428;2023-06-26T13:29:41;5.93;;;2.83;;
4434;SDS011;46552;52.150;8.428;2023-06-26T13:32:08;4.40;;;3.10;;
4434;SDS011;46552;52.150;8.428;2023-06-26T13:34:35;5.50;;;2.70;;
4434;SDS011;46552;52.150;8.428;2023-06-26T13:37:02;6.53;;;2.63;;
4434;SDS011;46552;52.150;8.428;2023-06-26T13:39:31;6.67;;;3.10;;
4434;SDS011;46552;52.150;8.428;2023-06-26T13:41:59;7.03;;;2.77;;
4434;SDS011;46552;52.150;8.428;2023-06-26T13:44:28;9.43;;;3.30;;
4434;SDS011;46552;52.150;8.428;2023-06-26T13:46:55;14.57;;;2.77;;
4434;SDS011;46552;52.150;8.428;2023-06-26T13:49:23;8.00;;;2.97;;
4434;SDS011;46552;52.150;8.428;2023-06-26T13:51:50;7.30;;;2.97;;
4434;SDS011;46552;52.150;8.428;2023-06-26T13:54:17;5.87;;;2.70;;
4434;SDS011;46552;52.150;8.428;2023-06-26T13:56:45;8.33;;;3.07;;
4434;SDS011;46552;52.150;8.428;2023-06-26T13:59:12;6.87;;;2.90;;
4434;SDS011;46552;52.150;8.428;2023-06-26T14:01:42;3.83;;;2.33;;
4434;SDS011;46552;52.150;8.428;2023-06-26T14:04:09;9.07;;;2.60;;
4434;SDS011;46552;52.150;8.428;2023-06-26T14:06:36;9.13;;;3.10;;
4434;SDS011;46552;52.150;8.428;2023-06-26T14:09:04;5.30;;;2.67;;
4434;SDS011;46552;52.150;8.428;2023-06-26T14:11:32;12.90;;;2.30;;
4434;SDS011;46552;52.150;8.428;2023-06-26T14:13:59;5.70;;;2.60;;
4434;SDS011;46552;52.150;8.428;2023-06-26T14:16:26;4.43;;;2.40;;
4434;SDS011;46552;52.150;8.428;2023-06-26T14:18:55;6.87;;;2.80;;
4434;SDS011;46552;52.150;8.428;2023-06-26T14:21:22;9.13;;;2.60;;
4434;SDS011;46552;52.150;8.428;2023-06-26T14:23:49;3.43;;;2.20;;
4434;SDS011;46552;52.150;8.428;2023-06-26T14:26:16;7.37;;;2.20;;
4434;SDS011;46552;52.150;8.428;2023-06-26T14:28:43;5.30;;;2.37;;
4434;SDS011;46552;52.150;8.428;2023-06-26T14:31:11;9.70;;;2.50;;
4434;SDS011;46552;52.150;8.428;2023-06-26T14:33:38;3.63;;;1.77;;
4434;SDS011;46552;52.150;8.428;2023-06-26T14:36:08;8.53;;;2.23;;
4434;SDS011;46552;52.150;8.428;2023-06-26T14:38:35;11.20;;;2.77;;
4434;SDS011;46552;52.150;8.428;2023-06-26T14:41:02;9.77;;;2.17;;
4434;SDS011;46552;52.150;8.428;2023-06-26T14:43:29;14.63;;;2.33;;
4434;SDS011;46552;52.150;8.428;2023-06-26T14:45:57;4.87;;;1.33;;
4434;SDS011;46552;52.150;8.428;2023-06-26T14:48:24;3.20;;;1.80;;
4434;SDS011;46552;52.150;8.428;2023-06-26T14:50:51;4.80;;;1.80;;
4434;SDS011;46552;52.150;8.428;2023-06-26T14:53:20;4.13;;;1.90;;
4434;SDS011;46552;52.150;8.428;2023-06-26T14:55:48;6.70;;;1.80;;